sensor_id;sensor_type;location;lat;lon;timestamp;P1;durP1;ratioP1;P2;durP2;ratioP2
7575;SDS011;3829;50.798;4.358;2023-12-04T00:01:43;12.87;;;6.23;;
7575;SDS011;3829;50.798;4.358;2023-12-04T00:04:10;12.40;;;6.20;;
7575;SDS011;3829;50.798;4.358;2023-12-04T00:06:36;11.13;;;5.93;;
7575;SDS011;3829;50.798;4.358;2023-12-04T00:09:01;10.77;;;5.63;;
7575;SDS011;3829;50.798;4.358;2023-12-04T00:11:27;12.03;;;5.87;;
7575;SDS011;3829;50.798;4.358;2023-12-04T00:13:52;13.63;;;6.13;;
7575;SDS011;3829;50.798;4.358;2023-12-04T00:16:18;10.67;;;5.90;;
7575;SDS011;3829;50.798;4.358;2023-12-04T00:18:43;10.27;;;5.77;;
7575;SDS011;3829;50.798;4.358;2023-12-04T00:21:09;12.37;;;5.47;;
7575;SDS011;3829;50.798;4.358;2023-12-04T00:23:35;15.27;;;6.80;;
7575;SDS011;3829;50.798;4.358;2023-12-04T00:26:00;13.90;;;6.03;;
7575;SDS011;3829;50.798;4.358;2023-12-04T00:28:27;9.67;;;5.90;;
7575;SDS011;3829;50.798;4.358;2023-12-04T00:30:53;12.73;;;5.97;;
7575;SDS011;3829;50.798;4.358;2023-12-04T00:33:19;10.37;;;5.93;;
7575;SDS011;3829;50.798;4.358;2023-12-04T00:35:45;12.27;;;6.43;;
7575;SDS011;3829;50.798;4.358;2023-12-04T00:38:10;8.70;;;5.07;;
7575;SDS011;3829;50.798;4.358;2023-12-04T00:40:36;12.30;;;6.33;;
7575;SDS011;3829;50.798;4.358;2023-12-04T00:43:01;11.33;;;5.80;;
7575;SDS011;3829;50.798;4.358;2023-12-04T00:45:27;9.70;;;5.23;;
7575;SDS011;3829;50.798;4.358;2023-12-04T00:47:53;13.10;;;6.23;;
7575;SDS011;3829;50.798;4.358;2023-12-04T00:50:18;12.40;;;6.17;;
7575;SDS011;3829;50.798;4.358;2023-12-04T00:52:44;10.67;;;5.60;;
7575;SDS011;3829;50.798;4.358;2023-12-04T00:55:09;10.83;;;5.60;;
7575;SDS011;3829;50.798;4.358;2023-12-04T00:57:35;12.87;;;5.43;;
7575;SDS011;3829;50.798;4.358;2023-12-04T01:00:00;11.03;;;5.63;;
7575;SDS011;3829;50.798;4.358;2023-12-04T01:02:26;9.63;;;5.17;;
7575;SDS011;3829;50.798;4.358;2023-12-04T01:04:52;9.47;;;5.27;;
7575;SDS011;3829;50.798;4.358;2023-12-04T01:07:17;10.33;;;5.17;;
7575;SDS011;3829;50.798;4.358;2023-12-04T01:09:43;9.33;;;4.63;;
7575;SDS011;3829;50.798;4.358;2023-12-04T01:12:08;8.97;;;4.67;;
7575;SDS011;3829;50.798;4.358;2023-12-04T01:14:35;10.77;;;5.63;;
7575;SDS011;3829;50.798;4.358;2023-12-04T01:17:03;11.07;;;5.20;;
7575;SDS011;3829;50.798;4.358;2023-12-04T01:19:29;7.40;;;4.50;;
7575;SDS011;3829;50.798;4.358;2023-12-04T01:21:54;10.70;;;5.00;;
7575;SDS011;3829;50.798;4.358;2023-12-04T01:24:20;10.03;;;5.23;;
7575;SDS011;3829;50.798;4.358;2023-12-04T01:26:46;12.80;;;4.90;;
7575;SDS011;3829;50.798;4.358;2023-12-04T01:29:12;9.53;;;4.87;;
7575;SDS011;3829;50.798;4.358;2023-12-04T01:31:37;10.37;;;5.10;;
7575;SDS011;3829;50.798;4.358;2023-12-04T01:34:03;7.40;;;4.23;;
7575;SDS011;3829;50.798;4.358;2023-12-04T01:36:28;10.40;;;5.07;;
7575;SDS011;3829;50.798;4.358;2023-12-04T01:38:54;10.03;;;5.30;;
7575;SDS011;3829;50.798;4.358;2023-12-04T01:41:19;9.23;;;4.97;;
7575;SDS011;3829;50.798;4.358;2023-12-04T01:43:46;9.90;;;4.83;;
7575;SDS011;3829;50.798;4.358;2023-12-04T01:46:11;10.83;;;4.83;;
7575;SDS011;3829;50.798;4.358;2023-12-04T01:48:40;11.03;;;5.23;;
7575;SDS011;3829;50.798;4.358;2023-12-04T01:51:07;8.50;;;4.33;;
7575;SDS011;3829;50.798;4.358;2023-12-04T01:53:35;8.07;;;4.13;;
7575;SDS011;3829;50.798;4.358;2023-12-04T01:56:03;6.30;;;3.77;;
7575;SDS011;3829;50.798;4.358;2023-12-04T01:58:29;8.50;;;4.43;;
7575;SDS011;3829;50.798;4.358;2023-12-04T02:00:54;8.67;;;4.47;;
7575;SDS011;3829;50.798;4.358;2023-12-04T02:03:20;8.10;;;4.53;;
7575;SDS011;3829;50.798;4.358;2023-12-04T02:05:46;7.77;;;3.93;;
7575;SDS011;3829;50.798;4.358;2023-12-04T02:08:16;12.07;;;4.63;;
7575;SDS011;3829;50.798;4.358;2023-12-04T02:10:42;7.60;;;3.97;;
7575;SDS011;3829;50.798;4.358;2023-12-04T02:13:07;11.00;;;5.30;;
7575;SDS011;3829;50.798;4.358;2023-12-04T02:15:34;7.67;;;3.80;;
7575;SDS011;3829;50.798;4.358;2023-12-04T02:18:00;10.40;;;4.50;;
7575;SDS011;3829;50.798;4.358;2023-12-04T02:20:33;8.03;;;4.30;;
7575;SDS011;3829;50.798;4.358;2023-12-04T02:23:00;7.47;;;3.77;;
7575;SDS011;3829;50.798;4.358;2023-12-04T02:25:26;6.83;;;4.10;;
7575;SDS011;3829;50.798;4.358;2023-12-04T02:27:53;8.13;;;4.33;;
7575;SDS011;3829;50.798;4.358;2023-12-04T02:30:21;9.03;;;4.90;;
7575;SDS011;3829;50.798;4.358;2023-12-04T02:32:49;8.93;;;4.20;;
7575;SDS011;3829;50.798;4.358;2023-12-04T02:35:20;10.07;;;4.80;;
7575;SDS011;3829;50.798;4.358;2023-12-04T02:37:48;9.63;;;5.13;;
7575;SDS011;3829;50.798;4.358;2023-12-04T02:40:14;8.70;;;4.27;;
7575;SDS011;3829;50.798;4.358;2023-12-04T02:42:40;8.43;;;4.37;;
7575;SDS011;3829;50.798;4.358;2023-12-04T02:45:06;8.50;;;4.13;;
7575;SDS011;3829;50.798;4.358;2023-12-04T02:47:32;8.53;;;3.73;;
7575;SDS011;3829;50.798;4.358;2023-12-04T02:49:58;9.77;;;3.93;;
7575;SDS011;3829;50.798;4.358;2023-12-04T02:52:24;7.67;;;4.20;;
7575;SDS011;3829;50.798;4.358;2023-12-04T02:54:49;9.30;;;4.00;;
7575;SDS011;3829;50.798;4.358;2023-12-04T02:57:15;5.50;;;3.47;;
7575;SDS011;3829;50.798;4.358;2023-12-04T02:59:40;8.30;;;3.87;;
7575;SDS011;3829;50.798;4.358;2023-12-04T03:02:06;6.83;;;4.00;;
7575;SDS011;3829;50.798;4.358;2023-12-04T03:04:31;6.60;;;4.00;;
7575;SDS011;3829;50.798;4.358;2023-12-04T03:06:58;6.33;;;4.30;;
7575;SDS011;3829;50.798;4.358;2023-12-04T03:09:23;5.77;;;3.37;;
7575;SDS011;3829;50.798;4.358;2023-12-04T03:11:49;6.50;;;4.17;;
7575;SDS011;3829;50.798;4.358;2023-12-04T03:14:15;8.87;;;3.40;;
7575;SDS011;3829;50.798;4.358;2023-12-04T03:16:40;6.80;;;3.77;;
7575;SDS011;3829;50.798;4.358;2023-12-04T03:19:06;9.00;;;4.47;;
7575;SDS011;3829;50.798;4.358;2023-12-04T03:21:31;8.00;;;4.00;;
7575;SDS011;3829;50.798;4.358;2023-12-04T03:23:57;8.30;;;3.97;;
7575;SDS011;3829;50.798;4.358;2023-12-04T03:26:23;6.13;;;3.80;;
7575;SDS011;3829;50.798;4.358;2023-12-04T03:28:48;7.03;;;3.80;;
7575;SDS011;3829;50.798;4.358;2023-12-04T03:31:14;5.80;;;3.47;;
7575;SDS011;3829;50.798;4.358;2023-12-04T03:33:39;6.10;;;3.40;;
7575;SDS011;3829;50.798;4.358;2023-12-04T03:36:05;7.93;;;3.40;;
7575;SDS011;3829;50.798;4.358;2023-12-04T03:38:31;7.13;;;4.10;;
7575;SDS011;3829;50.798;4.358;2023-12-04T03:40:57;5.90;;;3.23;;
7575;SDS011;3829;50.798;4.358;2023-12-04T03:43:22;5.20;;;3.37;;
7575;SDS011;3829;50.798;4.358;2023-12-04T03:45:48;7.37;;;3.63;;
7575;SDS011;3829;50.798;4.358;2023-12-04T03:48:14;8.10;;;4.37;;
7575;SDS011;3829;50.798;4.358;2023-12-04T03:50:39;6.67;;;3.87;;
7575;SDS011;3829;50.798;4.358;2023-12-04T03:53:05;7.93;;;4.13;;
7575;SDS011;3829;50.798;4.358;2023-12-04T03:55:31;8.27;;;3.73;;
7575;SDS011;3829;50.798;4.358;2023-12-04T03:57:56;7.07;;;4.03;;
7575;SDS011;3829;50.798;4.358;2023-12-04T04:00:23;8.50;;;3.97;;
7575;SDS011;3829;50.798;4.358;2023-12-04T04:02:49;6.33;;;3.70;;
7575;SDS011;3829;50.798;4.358;2023-12-04T04:05:15;7.50;;;3.60;;
7575;SDS011;3829;50.798;4.358;2023-12-04T04:07:41;5.50;;;3.57;;
7575;SDS011;3829;50.798;4.358;2023-12-04T04:10:07;7.13;;;3.43;;
7575;SDS011;3829;50.798;4.358;2023-12-04T04:12:33;8.30;;;3.90;;
7575;SDS011;3829;50.798;4.358;2023-12-04T04:14:59;7.60;;;4.10;;
7575;SDS011;3829;50.798;4.358;2023-12-04T04:17:25;6.83;;;4.10;;
7575;SDS011;3829;50.798;4.358;2023-12-04T04:19:52;6.93;;;3.77;;
7575;SDS011;3829;50.798;4.358;2023-12-04T04:22:19;6.43;;;3.93;;
7575;SDS011;3829;50.798;4.358;2023-12-04T04:24:45;7.37;;;3.70;;
7575;SDS011;3829;50.798;4.358;2023-12-04T04:27:10;5.30;;;3.10;;
7575;SDS011;3829;50.798;4.358;2023-12-04T04:29:36;7.23;;;3.53;;
7575;SDS011;3829;50.798;4.358;2023-12-04T04:32:01;6.50;;;3.87;;
7575;SDS011;3829;50.798;4.358;2023-12-04T04:34:27;5.13;;;3.50;;
7575;SDS011;3829;50.798;4.358;2023-12-04T04:36:53;7.70;;;3.97;;
7575;SDS011;3829;50.798;4.358;2023-12-04T04:39:18;7.03;;;3.60;;
7575;SDS011;3829;50.798;4.358;2023-12-04T04:41:44;6.53;;;3.70;;
7575;SDS011;3829;50.798;4.358;2023-12-04T04:44:10;6.50;;;3.90;;
7575;SDS011;3829;50.798;4.358;2023-12-04T04:46:35;8.03;;;3.47;;
7575;SDS011;3829;50.798;4.358;2023-12-04T04:49:01;6.20;;;3.90;;
7575;SDS011;3829;50.798;4.358;2023-12-04T04:51:27;5.93;;;3.20;;
7575;SDS011;3829;50.798;4.358;2023-12-04T04:53:54;5.30;;;3.60;;
7575;SDS011;3829;50.798;4.358;2023-12-04T04:56:20;5.73;;;3.30;;
7575;SDS011;3829;50.798;4.358;2023-12-04T04:58:46;6.83;;;3.60;;
7575;SDS011;3829;50.798;4.358;2023-12-04T05:01:11;5.60;;;3.80;;
7575;SDS011;3829;50.798;4.358;2023-12-04T05:03:37;6.80;;;3.97;;
7575;SDS011;3829;50.798;4.358;2023-12-04T05:06:03;7.70;;;3.53;;
7575;SDS011;3829;50.798;4.358;2023-12-04T05:08:29;8.30;;;3.60;;
7575;SDS011;3829;50.798;4.358;2023-12-04T05:10:54;6.63;;;3.73;;
7575;SDS011;3829;50.798;4.358;2023-12-04T05:13:20;6.17;;;3.37;;
7575;SDS011;3829;50.798;4.358;2023-12-04T05:15:46;6.30;;;3.80;;
7575;SDS011;3829;50.798;4.358;2023-12-04T05:18:11;4.93;;;3.47;;
7575;SDS011;3829;50.798;4.358;2023-12-04T05:20:37;8.90;;;3.90;;
7575;SDS011;3829;50.798;4.358;2023-12-04T05:23:02;6.33;;;3.40;;
7575;SDS011;3829;50.798;4.358;2023-12-04T05:25:28;5.43;;;3.60;;
7575;SDS011;3829;50.798;4.358;2023-12-04T05:27:53;6.77;;;3.53;;
7575;SDS011;3829;50.798;4.358;2023-12-04T05:30:19;4.13;;;2.70;;
7575;SDS011;3829;50.798;4.358;2023-12-04T05:32:45;6.23;;;3.30;;
7575;SDS011;3829;50.798;4.358;2023-12-04T05:35:10;6.93;;;3.37;;
7575;SDS011;3829;50.798;4.358;2023-12-04T05:37:36;5.33;;;3.57;;
7575;SDS011;3829;50.798;4.358;2023-12-04T05:40:02;5.03;;;2.97;;
7575;SDS011;3829;50.798;4.358;2023-12-04T05:42:29;5.23;;;3.30;;
7575;SDS011;3829;50.798;4.358;2023-12-04T05:44:55;4.93;;;2.90;;
7575;SDS011;3829;50.798;4.358;2023-12-04T05:47:22;5.43;;;3.23;;
7575;SDS011;3829;50.798;4.358;2023-12-04T05:49:47;6.00;;;3.07;;
7575;SDS011;3829;50.798;4.358;2023-12-04T05:52:13;5.33;;;2.87;;
7575;SDS011;3829;50.798;4.358;2023-12-04T05:54:39;6.57;;;4.03;;
7575;SDS011;3829;50.798;4.358;2023-12-04T05:57:04;4.77;;;3.10;;
7575;SDS011;3829;50.798;4.358;2023-12-04T05:59:30;5.60;;;2.87;;
7575;SDS011;3829;50.798;4.358;2023-12-04T06:01:55;4.67;;;2.90;;
7575;SDS011;3829;50.798;4.358;2023-12-04T06:04:21;4.53;;;3.03;;
7575;SDS011;3829;50.798;4.358;2023-12-04T06:06:47;5.93;;;3.00;;
7575;SDS011;3829;50.798;4.358;2023-12-04T06:09:12;4.07;;;2.70;;
7575;SDS011;3829;50.798;4.358;2023-12-04T06:11:40;4.87;;;3.13;;
7575;SDS011;3829;50.798;4.358;2023-12-04T06:14:06;3.70;;;2.93;;
7575;SDS011;3829;50.798;4.358;2023-12-04T06:16:31;7.23;;;4.40;;
7575;SDS011;3829;50.798;4.358;2023-12-04T06:18:57;5.30;;;2.93;;
7575;SDS011;3829;50.798;4.358;2023-12-04T06:21:23;5.33;;;3.60;;
7575;SDS011;3829;50.798;4.358;2023-12-04T06:23:48;6.37;;;3.80;;
7575;SDS011;3829;50.798;4.358;2023-12-04T06:26:14;6.40;;;3.83;;
7575;SDS011;3829;50.798;4.358;2023-12-04T06:28:40;6.23;;;3.83;;
7575;SDS011;3829;50.798;4.358;2023-12-04T06:31:06;5.50;;;3.93;;
7575;SDS011;3829;50.798;4.358;2023-12-04T06:33:32;7.53;;;3.70;;
7575;SDS011;3829;50.798;4.358;2023-12-04T06:35:58;6.30;;;3.60;;
7575;SDS011;3829;50.798;4.358;2023-12-04T06:38:24;7.50;;;4.40;;
7575;SDS011;3829;50.798;4.358;2023-12-04T06:40:50;6.53;;;4.00;;
7575;SDS011;3829;50.798;4.358;2023-12-04T06:43:16;7.03;;;4.13;;
7575;SDS011;3829;50.798;4.358;2023-12-04T06:45:44;6.63;;;4.37;;
7575;SDS011;3829;50.798;4.358;2023-12-04T06:48:11;7.23;;;3.60;;
7575;SDS011;3829;50.798;4.358;2023-12-04T06:50:38;5.60;;;3.30;;
7575;SDS011;3829;50.798;4.358;2023-12-04T06:53:05;6.23;;;3.47;;
7575;SDS011;3829;50.798;4.358;2023-12-04T06:55:31;8.10;;;4.33;;
7575;SDS011;3829;50.798;4.358;2023-12-04T06:57:56;5.43;;;3.70;;
7575;SDS011;3829;50.798;4.358;2023-12-04T07:00:22;6.77;;;4.20;;
7575;SDS011;3829;50.798;4.358;2023-12-04T07:02:47;7.47;;;4.13;;
7575;SDS011;3829;50.798;4.358;2023-12-04T07:05:14;5.03;;;3.73;;
7575;SDS011;3829;50.798;4.358;2023-12-04T07:07:40;4.70;;;3.40;;
7575;SDS011;3829;50.798;4.358;2023-12-04T07:10:06;8.43;;;4.07;;
7575;SDS011;3829;50.798;4.358;2023-12-04T07:12:32;7.60;;;4.20;;
7575;SDS011;3829;50.798;4.358;2023-12-04T07:14:58;7.30;;;3.90;;
7575;SDS011;3829;50.798;4.358;2023-12-04T07:17:24;5.70;;;3.53;;
7575;SDS011;3829;50.798;4.358;2023-12-04T07:19:50;6.60;;;4.13;;
7575;SDS011;3829;50.798;4.358;2023-12-04T07:22:16;6.30;;;3.50;;
7575;SDS011;3829;50.798;4.358;2023-12-04T07:24:41;8.03;;;4.13;;
7575;SDS011;3829;50.798;4.358;2023-12-04T07:27:07;6.73;;;4.20;;
7575;SDS011;3829;50.798;4.358;2023-12-04T07:29:34;5.87;;;3.27;;
7575;SDS011;3829;50.798;4.358;2023-12-04T07:32:00;6.90;;;4.07;;
7575;SDS011;3829;50.798;4.358;2023-12-04T07:34:25;6.57;;;4.13;;
7575;SDS011;3829;50.798;4.358;2023-12-04T07:36:51;5.80;;;3.80;;
7575;SDS011;3829;50.798;4.358;2023-12-04T07:39:17;5.90;;;3.80;;
7575;SDS011;3829;50.798;4.358;2023-12-04T07:41:42;8.27;;;3.77;;
7575;SDS011;3829;50.798;4.358;2023-12-04T07:44:08;6.63;;;3.70;;
7575;SDS011;3829;50.798;4.358;2023-12-04T07:46:33;6.90;;;4.40;;
7575;SDS011;3829;50.798;4.358;2023-12-04T07:48:59;7.03;;;3.70;;
7575;SDS011;3829;50.798;4.358;2023-12-04T07:51:25;6.93;;;4.23;;
7575;SDS011;3829;50.798;4.358;2023-12-04T07:53:50;14.17;;;4.33;;
7575;SDS011;3829;50.798;4.358;2023-12-04T07:56:16;5.93;;;4.03;;
7575;SDS011;3829;50.798;4.358;2023-12-04T07:58:41;6.93;;;3.97;;
7575;SDS011;3829;50.798;4.358;2023-12-04T08:01:07;8.63;;;4.50;;
7575;SDS011;3829;50.798;4.358;2023-12-04T08:03:33;7.20;;;4.40;;
7575;SDS011;3829;50.798;4.358;2023-12-04T08:06:01;6.03;;;3.80;;
7575;SDS011;3829;50.798;4.358;2023-12-04T08:08:28;5.17;;;3.53;;
7575;SDS011;3829;50.798;4.358;2023-12-04T08:10:53;7.90;;;4.40;;
7575;SDS011;3829;50.798;4.358;2023-12-04T08:13:19;6.43;;;4.03;;
7575;SDS011;3829;50.798;4.358;2023-12-04T08:15:45;8.37;;;4.80;;
7575;SDS011;3829;50.798;4.358;2023-12-04T08:18:11;9.13;;;3.97;;
7575;SDS011;3829;50.798;4.358;2023-12-04T08:20:36;9.67;;;5.10;;
7575;SDS011;3829;50.798;4.358;2023-12-04T08:23:02;7.50;;;4.23;;
7575;SDS011;3829;50.798;4.358;2023-12-04T08:25:28;5.70;;;3.70;;
7575;SDS011;3829;50.798;4.358;2023-12-04T08:27:53;7.90;;;5.00;;
7575;SDS011;3829;50.798;4.358;2023-12-04T08:30:19;7.53;;;5.00;;
7575;SDS011;3829;50.798;4.358;2023-12-04T08:32:44;6.70;;;4.53;;
7575;SDS011;3829;50.798;4.358;2023-12-04T08:35:10;8.70;;;5.00;;
7575;SDS011;3829;50.798;4.358;2023-12-04T08:37:36;6.20;;;4.17;;
7575;SDS011;3829;50.798;4.358;2023-12-04T08:40:01;9.83;;;5.00;;
7575;SDS011;3829;50.798;4.358;2023-12-04T08:42:28;5.27;;;4.37;;
7575;SDS011;3829;50.798;4.358;2023-12-04T08:44:54;7.07;;;4.50;;
7575;SDS011;3829;50.798;4.358;2023-12-04T08:47:20;10.20;;;5.13;;
7575;SDS011;3829;50.798;4.358;2023-12-04T08:49:45;7.93;;;4.77;;
7575;SDS011;3829;50.798;4.358;2023-12-04T08:52:11;7.67;;;4.47;;
7575;SDS011;3829;50.798;4.358;2023-12-04T08:54:39;6.97;;;4.57;;
7575;SDS011;3829;50.798;4.358;2023-12-04T08:57:06;6.93;;;4.37;;
7575;SDS011;3829;50.798;4.358;2023-12-04T08:59:31;8.30;;;4.47;;
7575;SDS011;3829;50.798;4.358;2023-12-04T09:01:57;7.70;;;3.90;;
7575;SDS011;3829;50.798;4.358;2023-12-04T09:04:23;8.40;;;5.17;;
7575;SDS011;3829;50.798;4.358;2023-12-04T09:06:48;5.03;;;3.50;;
7575;SDS011;3829;50.798;4.358;2023-12-04T09:09:14;10.03;;;4.53;;
7575;SDS011;3829;50.798;4.358;2023-12-04T09:11:41;8.63;;;4.73;;
7575;SDS011;3829;50.798;4.358;2023-12-04T09:14:07;6.93;;;4.30;;
7575;SDS011;3829;50.798;4.358;2023-12-04T09:16:33;9.13;;;5.10;;
7575;SDS011;3829;50.798;4.358;2023-12-04T09:18:59;8.03;;;4.97;;
7575;SDS011;3829;50.798;4.358;2023-12-04T09:21:25;8.07;;;4.63;;
7575;SDS011;3829;50.798;4.358;2023-12-04T09:23:51;8.40;;;4.90;;
7575;SDS011;3829;50.798;4.358;2023-12-04T09:26:17;9.20;;;4.20;;
7575;SDS011;3829;50.798;4.358;2023-12-04T09:28:43;6.33;;;4.77;;
7575;SDS011;3829;50.798;4.358;2023-12-04T09:31:08;5.60;;;4.03;;
7575;SDS011;3829;50.798;4.358;2023-12-04T09:33:34;7.67;;;4.73;;
7575;SDS011;3829;50.798;4.358;2023-12-04T09:36:01;7.97;;;5.00;;
7575;SDS011;3829;50.798;4.358;2023-12-04T09:38:27;7.13;;;4.83;;
7575;SDS011;3829;50.798;4.358;2023-12-04T09:40:52;7.60;;;4.20;;
7575;SDS011;3829;50.798;4.358;2023-12-04T09:43:20;6.40;;;4.77;;
7575;SDS011;3829;50.798;4.358;2023-12-04T09:45:46;7.90;;;4.97;;
7575;SDS011;3829;50.798;4.358;2023-12-04T09:48:12;8.37;;;5.00;;
7575;SDS011;3829;50.798;4.358;2023-12-04T09:50:37;7.43;;;5.50;;
7575;SDS011;3829;50.798;4.358;2023-12-04T09:53:04;10.33;;;5.30;;
7575;SDS011;3829;50.798;4.358;2023-12-04T09:55:35;8.10;;;4.63;;
7575;SDS011;3829;50.798;4.358;2023-12-04T09:58:00;8.43;;;4.83;;
7575;SDS011;3829;50.798;4.358;2023-12-04T10:00:26;8.63;;;5.23;;
7575;SDS011;3829;50.798;4.358;2023-12-04T10:02:53;10.67;;;5.17;;
7575;SDS011;3829;50.798;4.358;2023-12-04T10:05:20;8.90;;;5.43;;
7575;SDS011;3829;50.798;4.358;2023-12-04T10:07:47;7.90;;;4.70;;
7575;SDS011;3829;50.798;4.358;2023-12-04T10:10:13;7.47;;;4.40;;
7575;SDS011;3829;50.798;4.358;2023-12-04T10:12:39;11.70;;;5.47;;
7575;SDS011;3829;50.798;4.358;2023-12-04T10:15:06;9.27;;;5.40;;
7575;SDS011;3829;50.798;4.358;2023-12-04T10:17:35;7.67;;;5.37;;
7575;SDS011;3829;50.798;4.358;2023-12-04T10:20:11;8.87;;;5.90;;
7575;SDS011;3829;50.798;4.358;2023-12-04T10:25:20;7.83;;;5.20;;
7575;SDS011;3829;50.798;4.358;2023-12-04T10:27:46;11.17;;;6.43;;
7575;SDS011;3829;50.798;4.358;2023-12-04T10:32:55;11.20;;;6.73;;
7575;SDS011;3829;50.798;4.358;2023-12-04T10:35:25;10.37;;;5.37;;
7575;SDS011;3829;50.798;4.358;2023-12-04T10:37:54;11.57;;;6.43;;
7575;SDS011;3829;50.798;4.358;2023-12-04T10:40:24;9.90;;;5.67;;
7575;SDS011;3829;50.798;4.358;2023-12-04T10:42:51;8.70;;;5.37;;
7575;SDS011;3829;50.798;4.358;2023-12-04T10:45:35;9.33;;;5.77;;
7575;SDS011;3829;50.798;4.358;2023-12-04T10:48:02;7.70;;;5.43;;
7575;SDS011;3829;50.798;4.358;2023-12-04T10:50:31;9.00;;;5.30;;
7575;SDS011;3829;50.798;4.358;2023-12-04T10:52:58;8.80;;;5.70;;
7575;SDS011;3829;50.798;4.358;2023-12-04T10:55:26;10.17;;;6.20;;
7575;SDS011;3829;50.798;4.358;2023-12-04T10:57:52;9.53;;;5.50;;
7575;SDS011;3829;50.798;4.358;2023-12-04T11:00:19;9.23;;;5.90;;
7575;SDS011;3829;50.798;4.358;2023-12-04T11:02:46;9.63;;;5.93;;
7575;SDS011;3829;50.798;4.358;2023-12-04T11:05:15;11.40;;;5.80;;
7575;SDS011;3829;50.798;4.358;2023-12-04T11:07:48;9.13;;;5.63;;
7575;SDS011;3829;50.798;4.358;2023-12-04T11:10:17;7.07;;;4.83;;
7575;SDS011;3829;50.798;4.358;2023-12-04T11:12:48;11.13;;;5.90;;
7575;SDS011;3829;50.798;4.358;2023-12-04T11:15:21;8.63;;;5.17;;
7575;SDS011;3829;50.798;4.358;2023-12-04T11:17:51;9.07;;;4.93;;
7575;SDS011;3829;50.798;4.358;2023-12-04T11:20:24;6.63;;;4.93;;
7575;SDS011;3829;50.798;4.358;2023-12-04T11:22:52;10.10;;;6.10;;
7575;SDS011;3829;50.798;4.358;2023-12-04T11:25:20;8.63;;;5.20;;
7575;SDS011;3829;50.798;4.358;2023-12-04T11:27:49;8.10;;;5.07;;
7575;SDS011;3829;50.798;4.358;2023-12-04T11:30:16;5.03;;;3.20;;
7575;SDS011;3829;50.798;4.358;2023-12-04T11:32:44;10.43;;;5.90;;
7575;SDS011;3829;50.798;4.358;2023-12-04T11:35:18;9.00;;;4.70;;
7575;SDS011;3829;50.798;4.358;2023-12-04T11:37:44;8.47;;;5.20;;
7575;SDS011;3829;50.798;4.358;2023-12-04T11:40:12;9.00;;;4.33;;
7575;SDS011;3829;50.798;4.358;2023-12-04T11:42:38;10.27;;;5.53;;
7575;SDS011;3829;50.798;4.358;2023-12-04T11:45:04;9.13;;;4.60;;
7575;SDS011;3829;50.798;4.358;2023-12-04T11:47:31;8.10;;;5.03;;
7575;SDS011;3829;50.798;4.358;2023-12-04T11:50:14;6.27;;;4.00;;
7575;SDS011;3829;50.798;4.358;2023-12-04T11:52:40;9.30;;;4.43;;
7575;SDS011;3829;50.798;4.358;2023-12-04T11:55:07;8.07;;;4.90;;
7575;SDS011;3829;50.798;4.358;2023-12-04T11:57:33;7.53;;;4.57;;
7575;SDS011;3829;50.798;4.358;2023-12-04T12:02:48;11.40;;;5.70;;
7575;SDS011;3829;50.798;4.358;2023-12-04T12:05:26;7.47;;;5.03;;
7575;SDS011;3829;50.798;4.358;2023-12-04T12:07:53;6.63;;;3.50;;
7575;SDS011;3829;50.798;4.358;2023-12-04T12:10:19;8.60;;;4.40;;
7575;SDS011;3829;50.798;4.358;2023-12-04T12:12:45;6.97;;;4.37;;
7575;SDS011;3829;50.798;4.358;2023-12-04T12:15:12;6.43;;;4.40;;
7575;SDS011;3829;50.798;4.358;2023-12-04T12:17:38;7.27;;;5.10;;
7575;SDS011;3829;50.798;4.358;2023-12-04T12:20:06;7.67;;;5.10;;
7575;SDS011;3829;50.798;4.358;2023-12-04T12:22:34;8.13;;;4.93;;
7575;SDS011;3829;50.798;4.358;2023-12-04T12:25:00;7.50;;;4.53;;
7575;SDS011;3829;50.798;4.358;2023-12-04T12:27:29;7.47;;;4.87;;
7575;SDS011;3829;50.798;4.358;2023-12-04T12:29:56;6.60;;;4.33;;
7575;SDS011;3829;50.798;4.358;2023-12-04T12:32:21;8.20;;;4.80;;
7575;SDS011;3829;50.798;4.358;2023-12-04T12:34:47;8.80;;;4.50;;
7575;SDS011;3829;50.798;4.358;2023-12-04T12:37:12;5.50;;;3.77;;
7575;SDS011;3829;50.798;4.358;2023-12-04T12:39:38;6.87;;;4.50;;
7575;SDS011;3829;50.798;4.358;2023-12-04T12:42:05;8.37;;;4.50;;
7575;SDS011;3829;50.798;4.358;2023-12-04T12:44:38;8.20;;;4.13;;
7575;SDS011;3829;50.798;4.358;2023-12-04T12:47:05;7.63;;;4.67;;
7575;SDS011;3829;50.798;4.358;2023-12-04T12:49:32;4.90;;;4.07;;
7575;SDS011;3829;50.798;4.358;2023-12-04T12:52:00;2.70;;;2.47;;
7575;SDS011;3829;50.798;4.358;2023-12-04T12:54:26;6.83;;;4.60;;
7575;SDS011;3829;50.798;4.358;2023-12-04T12:56:52;5.70;;;3.63;;
7575;SDS011;3829;50.798;4.358;2023-12-04T12:59:18;6.47;;;4.17;;
7575;SDS011;3829;50.798;4.358;2023-12-04T13:01:43;6.20;;;4.20;;
7575;SDS011;3829;50.798;4.358;2023-12-04T13:04:13;8.33;;;3.93;;
7575;SDS011;3829;50.798;4.358;2023-12-04T13:06:40;5.20;;;3.53;;
7575;SDS011;3829;50.798;4.358;2023-12-04T13:09:05;6.03;;;3.63;;
7575;SDS011;3829;50.798;4.358;2023-12-04T13:11:31;4.17;;;3.40;;
7575;SDS011;3829;50.798;4.358;2023-12-04T13:13:58;10.77;;;4.53;;
7575;SDS011;3829;50.798;4.358;2023-12-04T13:16:23;5.40;;;4.33;;
7575;SDS011;3829;50.798;4.358;2023-12-04T13:18:49;5.67;;;4.13;;
7575;SDS011;3829;50.798;4.358;2023-12-04T13:21:15;8.90;;;4.87;;
7575;SDS011;3829;50.798;4.358;2023-12-04T13:23:40;4.47;;;3.80;;
7575;SDS011;3829;50.798;4.358;2023-12-04T13:26:07;5.80;;;3.87;;
7575;SDS011;3829;50.798;4.358;2023-12-04T13:28:35;6.27;;;4.00;;
7575;SDS011;3829;50.798;4.358;2023-12-04T13:31:03;10.37;;;4.73;;
7575;SDS011;3829;50.798;4.358;2023-12-04T13:33:29;6.87;;;4.30;;
7575;SDS011;3829;50.798;4.358;2023-12-04T13:35:55;5.13;;;4.00;;
7575;SDS011;3829;50.798;4.358;2023-12-04T13:38:21;6.93;;;4.00;;
7575;SDS011;3829;50.798;4.358;2023-12-04T13:40:46;5.70;;;3.97;;
7575;SDS011;3829;50.798;4.358;2023-12-04T13:43:25;8.70;;;4.27;;
7575;SDS011;3829;50.798;4.358;2023-12-04T13:46:01;5.27;;;3.80;;
7575;SDS011;3829;50.798;4.358;2023-12-04T13:48:34;5.20;;;3.37;;
7575;SDS011;3829;50.798;4.358;2023-12-04T13:51:00;5.60;;;3.87;;
7575;SDS011;3829;50.798;4.358;2023-12-04T13:53:25;6.67;;;3.67;;
7575;SDS011;3829;50.798;4.358;2023-12-04T13:55:55;5.63;;;4.10;;
7575;SDS011;3829;50.798;4.358;2023-12-04T13:58:40;5.07;;;3.80;;
7575;SDS011;3829;50.798;4.358;2023-12-04T14:01:10;7.00;;;4.10;;
7575;SDS011;3829;50.798;4.358;2023-12-04T14:03:40;6.87;;;4.47;;
7575;SDS011;3829;50.798;4.358;2023-12-04T14:06:07;8.23;;;4.17;;
7575;SDS011;3829;50.798;4.358;2023-12-04T14:08:37;6.00;;;3.60;;
7575;SDS011;3829;50.798;4.358;2023-12-04T14:11:03;5.20;;;3.60;;
7575;SDS011;3829;50.798;4.358;2023-12-04T14:13:30;7.50;;;4.23;;
7575;SDS011;3829;50.798;4.358;2023-12-04T14:15:57;6.57;;;3.40;;
7575;SDS011;3829;50.798;4.358;2023-12-04T14:18:22;5.60;;;4.30;;
7575;SDS011;3829;50.798;4.358;2023-12-04T14:20:49;5.47;;;2.87;;
7575;SDS011;3829;50.798;4.358;2023-12-04T14:23:14;8.00;;;4.53;;
7575;SDS011;3829;50.798;4.358;2023-12-04T14:25:41;8.47;;;4.13;;
7575;SDS011;3829;50.798;4.358;2023-12-04T14:28:06;6.23;;;3.80;;
7575;SDS011;3829;50.798;4.358;2023-12-04T14:30:32;8.40;;;4.67;;
7575;SDS011;3829;50.798;4.358;2023-12-04T14:32:58;5.30;;;3.70;;
7575;SDS011;3829;50.798;4.358;2023-12-04T14:35:23;5.27;;;4.10;;
7575;SDS011;3829;50.798;4.358;2023-12-04T14:37:49;4.27;;;3.53;;
7575;SDS011;3829;50.798;4.358;2023-12-04T14:40:15;6.17;;;4.30;;
7575;SDS011;3829;50.798;4.358;2023-12-04T14:42:43;6.13;;;4.23;;
7575;SDS011;3829;50.798;4.358;2023-12-04T14:45:08;7.93;;;4.10;;
7575;SDS011;3829;50.798;4.358;2023-12-04T14:47:34;7.23;;;4.60;;
7575;SDS011;3829;50.798;4.358;2023-12-04T14:50:02;5.77;;;4.13;;
7575;SDS011;3829;50.798;4.358;2023-12-04T14:52:28;4.10;;;3.70;;
7575;SDS011;3829;50.798;4.358;2023-12-04T14:54:54;5.90;;;4.07;;
7575;SDS011;3829;50.798;4.358;2023-12-04T14:57:40;6.03;;;3.93;;
7575;SDS011;3829;50.798;4.358;2023-12-04T15:00:25;4.07;;;2.87;;
7575;SDS011;3829;50.798;4.358;2023-12-04T15:03:01;6.17;;;3.80;;
7575;SDS011;3829;50.798;4.358;2023-12-04T15:05:47;5.90;;;4.63;;
7575;SDS011;3829;50.798;4.358;2023-12-04T15:08:25;4.93;;;3.93;;
7575;SDS011;3829;50.798;4.358;2023-12-04T15:11:01;4.57;;;3.50;;
7575;SDS011;3829;50.798;4.358;2023-12-04T15:13:36;4.70;;;3.70;;
7575;SDS011;3829;50.798;4.358;2023-12-04T15:16:20;5.20;;;4.00;;
7575;SDS011;3829;50.798;4.358;2023-12-04T15:18:56;5.40;;;4.10;;